createdAt,value
2022-10-14T00:01:23.823Z,100979.42
2022-10-14T00:04:04.223Z,100975.77
2022-10-14T00:06:34.523Z,100975.95
2022-10-14T00:09:07.542Z,100977.41
2022-10-14T00:11:37.515Z,100972.05
2022-10-14T00:14:12.585Z,100967.95
2022-10-14T00:16:43.216Z,100974.45
2022-10-14T00:19:12.294Z,100977.46
2022-10-14T00:21:43.802Z,100976.33
2022-10-14T00:24:16.509Z,100973.61
2022-10-14T00:26:45.076Z,100970.67
2022-10-14T00:29:19.734Z,100966.91
2022-10-14T00:31:48.547Z,100972.95
2022-10-14T00:34:17.116Z,100970.76
2022-10-14T00:36:45.193Z,100972.45
2022-10-14T00:39:17.049Z,100968.51
2022-10-14T00:41:45.662Z,100963.70
2022-10-14T00:44:13.686Z,100966.78
2022-10-14T00:46:44.519Z,100963.06
2022-10-14T00:49:25.494Z,100954.64
2022-10-14T00:52:14.025Z,100954.58
2022-10-14T00:54:47.521Z,100953.14
2022-10-14T00:57:16.144Z,100957.81
2022-10-14T00:59:50.848Z,100960.56
2022-10-14T01:02:19.368Z,100953.48
2022-10-14T01:04:47.316Z,100952.14
2022-10-14T01:07:18.475Z,100946.73
2022-10-14T01:10:05.094Z,100949.56
2022-10-14T01:12:52.066Z,100949.75
2022-10-14T01:15:35.817Z,100949.23
2022-10-14T01:18:33.847Z,100946.48
2022-10-14T01:21:26.545Z,100944.17
2022-10-14T01:24:32.494Z,100940.94
2022-10-14T01:27:19.112Z,100941.58
2022-10-14T01:29:58.974Z,100937.56
2022-10-14T01:32:49.915Z,100916.65
2022-10-14T01:35:49.998Z,100929.91
2022-10-14T01:38:26.079Z,100928.73
2022-10-14T01:41:11.927Z,100920.16
2022-10-14T01:43:43.565Z,100918.59
2022-10-14T01:46:13.617Z,100920.29
2022-10-14T01:48:46.940Z,100917.92
2022-10-14T01:51:27.397Z,100920.48
2022-10-14T01:54:08.718Z,100919.55
2022-10-14T01:56:40.555Z,100920.17
2022-10-14T01:59:12.561Z,100915.68
2022-10-14T02:01:40.684Z,100916.46
2022-10-14T02:04:19.909Z,100913.95
2022-10-14T02:07:19.815Z,100912.30
2022-10-14T02:10:01.430Z,100909.85
2022-10-14T02:12:51.652Z,100908.83
2022-10-14T02:15:31.693Z,100907.27
2022-10-14T02:18:08.588Z,100904.25
2022-10-14T02:20:39.658Z,100886.09
2022-10-14T02:23:16.862Z,100905.70
2022-10-14T02:25:47.219Z,100905.13
2022-10-14T02:28:22.129Z,100901.58
2022-10-14T02:30:53.934Z,100901.30
2022-10-14T02:33:24.707Z,100893.36
2022-10-14T02:35:54.373Z,100894.21
2022-10-14T02:38:24.088Z,100892.59
2022-10-14T02:40:54.441Z,100889.07
2022-10-14T02:43:22.225Z,100889.66
2022-10-14T02:45:50.164Z,100888.95
2022-10-14T02:48:18.266Z,100887.02
2022-10-14T02:50:46.097Z,100884.55
2022-10-14T02:53:17.439Z,100884.34
2022-10-14T02:55:46.798Z,100885.89
2022-10-14T02:58:14.898Z,100887.22
2022-10-14T03:00:43.143Z,100885.38
2022-10-14T03:03:13.093Z,100884.34
2022-10-14T03:05:41.131Z,100839.77
2022-10-14T03:08:12.821Z,100881.23
2022-10-14T03:10:40.967Z,100877.45
2022-10-14T03:13:10.731Z,100879.85
2022-10-14T03:15:42.776Z,100882.73
2022-10-14T03:18:11.624Z,100875.76
2022-10-14T03:20:45.864Z,100873.71
2022-10-14T03:23:17.825Z,100874.59
2022-10-14T03:25:47.370Z,100872.98
2022-10-14T03:28:20.858Z,100872.23
2022-10-14T03:31:09.879Z,100874.27
2022-10-14T03:33:58.390Z,100860.23
2022-10-14T03:36:27.974Z,100870.34
2022-10-14T03:38:57.714Z,100862.47
2022-10-14T03:41:42.201Z,100866.27
2022-10-14T03:44:11.667Z,100862.95
2022-10-14T03:46:40.891Z,100849.98
2022-10-14T03:49:09.274Z,100862.55
2022-10-14T03:51:38.288Z,100860.64
2022-10-14T03:54:16.111Z,100862.16
2022-10-14T03:56:45.739Z,100844.55
2022-10-14T03:59:14.887Z,100860.35
2022-10-14T04:01:46.585Z,100847.31
2022-10-14T04:04:21.458Z,100845.08
2022-10-14T04:06:49.735Z,100860.39
2022-10-14T04:09:19.290Z,100861.70
2022-10-14T04:11:47.991Z,100855.39
2022-10-14T04:14:29.570Z,100842.70
2022-10-14T04:16:58.102Z,100853.69
2022-10-14T04:19:26.605Z,100852.71
2022-10-14T04:21:55.830Z,100843.12
2022-10-14T04:24:24.303Z,100839.90
2022-10-14T04:26:57.430Z,100838.06
2022-10-14T04:29:42.437Z,100830.21
2022-10-14T04:32:15.863Z,100829.77
2022-10-14T04:34:44.037Z,100832.75
2022-10-14T04:37:13.698Z,100827.91
2022-10-14T04:39:47.764Z,100823.73
2022-10-14T04:42:15.978Z,100821.98
2022-10-14T04:44:45.056Z,100819.59
2022-10-14T04:47:13.769Z,100818.92
2022-10-14T04:49:41.708Z,100819.27
2022-10-14T04:52:15.024Z,100820.04
2022-10-14T04:54:55.631Z,100821.70
2022-10-14T04:57:34.012Z,100828.95
2022-10-14T05:00:04.903Z,100822.29
2022-10-14T05:02:44.748Z,100819.59
2022-10-14T05:05:12.723Z,100813.27
2022-10-14T05:07:41.828Z,100810.78
2022-10-14T05:10:23.484Z,100815.19
2022-10-14T05:12:51.561Z,100814.66
2022-10-14T05:15:19.734Z,100815.41
2022-10-14T05:17:57.376Z,100807.88
2022-10-14T05:20:32.506Z,100811.19
2022-10-14T05:23:00.653Z,100812.04
2022-10-14T05:25:28.907Z,100813.12
2022-10-14T05:27:57.196Z,100807.86
2022-10-14T05:30:30.830Z,100810.15
2022-10-14T05:33:01.885Z,100793.92
2022-10-14T05:35:57.080Z,100810.27
2022-10-14T05:38:19.840Z,100799.65
2022-10-14T05:40:55.632Z,100808.21
2022-10-14T05:43:32.009Z,100812.92
2022-10-14T05:46:01.617Z,100812.98
2022-10-14T05:48:32.405Z,100816.12
2022-10-14T05:51:02.911Z,100818.31
2022-10-14T05:53:33.156Z,100822.20
2022-10-14T05:56:06.031Z,100820.63
2022-10-14T05:58:34.521Z,100819.46
2022-10-14T06:01:04.617Z,100821.59
2022-10-14T06:03:33.668Z,100826.35
2022-10-14T06:06:02.406Z,100820.32
2022-10-14T06:08:31.804Z,100818.11
2022-10-14T06:11:04.990Z,100819.75
2022-10-14T06:13:35.507Z,100815.40
2022-10-14T06:16:09.127Z,100819.02
2022-10-14T06:18:38.441Z,100820.16
2022-10-14T06:21:08.309Z,100826.98
2022-10-14T06:23:37.188Z,100813.42
2022-10-14T06:26:11.997Z,100829.75
2022-10-14T06:28:40.168Z,100830.55
2022-10-14T06:31:08.049Z,100819.95
2022-10-14T06:33:36.270Z,100826.08
2022-10-14T06:36:06.118Z,100826.41
2022-10-14T06:38:34.104Z,100822.45
2022-10-14T06:41:02.962Z,100822.10
2022-10-14T06:43:31.109Z,100822.95
2022-10-14T06:45:59.590Z,100828.84
2022-10-14T06:48:27.674Z,100829.32
2022-10-14T06:51:00.232Z,100826.54
2022-10-14T06:53:29.772Z,100827.54
2022-10-14T06:56:00.214Z,100831.87
2022-10-14T06:58:29.092Z,100833.81
2022-10-14T07:01:02.682Z,100832.97
2022-10-14T07:03:31.785Z,100835.65
2022-10-14T07:06:04.048Z,100835.09
2022-10-14T07:08:32.450Z,100835.91
2022-10-14T07:11:00.629Z,100832.08
2022-10-14T07:13:29.182Z,100826.48
2022-10-14T07:15:57.667Z,100827.36
2022-10-14T07:18:25.937Z,100824.27
2022-10-14T07:20:53.857Z,100816.37
2022-10-14T07:23:22.186Z,100819.73
2022-10-14T07:25:50.232Z,100822.48
2022-10-14T07:28:18.977Z,100820.35
2022-10-14T07:30:56.303Z,100821.38
2022-10-14T07:33:24.517Z,100820.59
2022-10-14T07:35:52.602Z,100819.25
2022-10-14T07:38:21.032Z,100816.84
2022-10-14T07:40:59.665Z,100814.60
2022-10-14T07:43:28.525Z,100814.59
2022-10-14T07:46:01.136Z,100815.88
2022-10-14T07:48:32.711Z,100821.81
2022-10-14T07:51:00.981Z,100822.51
2022-10-14T07:53:29.203Z,100820.81
2022-10-14T07:55:58.853Z,100820.97
2022-10-14T07:58:29.566Z,100827.83
2022-10-14T08:00:58.333Z,100828.17
2022-10-14T08:03:26.911Z,100826.21
2022-10-14T08:06:00.462Z,100828.55
2022-10-14T08:08:29.775Z,100831.09
2022-10-14T08:11:05.815Z,100831.46
2022-10-14T08:13:34.446Z,100825.38
2022-10-14T08:16:03.085Z,100824.94
2022-10-14T08:18:30.977Z,100835.08
2022-10-14T08:20:58.964Z,100834.39
2022-10-14T08:23:27.458Z,100835.38
2022-10-14T08:25:55.273Z,100836.82
2022-10-14T08:28:23.269Z,100833.33
2022-10-14T08:30:53.028Z,100829.23
2022-10-14T08:33:21.623Z,100828.65
2022-10-14T08:35:53.837Z,100832.89
2022-10-14T08:38:25.314Z,100830.97
2022-10-14T08:41:30.898Z,100827.52
2022-10-14T08:44:13.455Z,100832.34
2022-10-14T08:46:51.233Z,100831.30
2022-10-14T08:49:27.182Z,100825.55
2022-10-14T08:52:10.200Z,100821.34
2022-10-14T08:54:55.662Z,100816.75
2022-10-14T08:57:27.466Z,100815.72
2022-10-14T08:59:55.729Z,100814.88
2022-10-14T09:02:29.960Z,100811.43
2022-10-14T09:05:00.180Z,100800.23
2022-10-14T09:07:32.161Z,100806.64
2022-10-14T09:10:07.502Z,100807.05
2022-10-14T09:12:36.624Z,100812.68
2022-10-14T09:15:22.577Z,100798.95
2022-10-14T09:17:57.570Z,100813.16
2022-10-14T09:20:28.553Z,100812.84
2022-10-14T09:23:19.605Z,100807.58
2022-10-14T09:26:11.835Z,100808.36
2022-10-14T09:28:43.911Z,100808.95
2022-10-14T09:31:15.885Z,100807.67
2022-10-14T09:33:57.411Z,100804.34
2022-10-14T09:36:27.307Z,100803.52
2022-10-14T09:38:55.610Z,100797.81
2022-10-14T09:41:30.813Z,100804.38
2022-10-14T09:44:21.294Z,100787.10
2022-10-14T09:47:13.381Z,100786.20
2022-10-14T09:49:46.651Z,100805.61
2022-10-14T09:52:24.446Z,100804.54
2022-10-14T09:54:59.023Z,100804.09
2022-10-14T09:57:28.464Z,100803.23
2022-10-14T10:00:03.650Z,100797.61
2022-10-14T10:02:43.710Z,100791.55
2022-10-14T10:05:22.675Z,100789.16
2022-10-14T10:08:18.322Z,100787.61
2022-10-14T10:11:13.793Z,100789.36
2022-10-14T10:13:47.498Z,100787.05
2022-10-14T10:16:25.260Z,100788.04
2022-10-14T10:18:56.297Z,100777.74
2022-10-14T10:21:28.064Z,100784.75
2022-10-14T10:24:01.700Z,100781.67
2022-10-14T10:26:38.557Z,100778.95
2022-10-14T10:29:06.745Z,100767.74
2022-10-14T10:31:43.742Z,100778.02
2022-10-14T10:34:51.534Z,100777.73
2022-10-14T10:37:23.964Z,100775.42
2022-10-14T10:40:47.685Z,100772.61
2022-10-14T10:43:45.262Z,100770.90
2022-10-14T10:46:36.516Z,100766.91
2022-10-14T10:49:53.027Z,100767.30
2022-10-14T10:52:37.157Z,100754.34
2022-10-14T10:55:43.076Z,100762.30
2022-10-14T10:58:30.241Z,100761.94
2022-10-14T11:01:06.081Z,100761.84
2022-10-14T11:03:55.337Z,100759.91
2022-10-14T11:06:56.265Z,100756.73
2022-10-14T11:09:54.561Z,100742.39
2022-10-14T11:12:28.734Z,100747.04
2022-10-14T11:15:29.056Z,100743.92
2022-10-14T11:18:12.657Z,100735.55
2022-10-14T11:21:05.598Z,100734.25
2022-10-14T11:23:59.756Z,100735.98
2022-10-14T11:26:58.871Z,100734.30
2022-10-14T11:29:36.499Z,100731.32
2022-10-14T11:32:14.250Z,100734.67
2022-10-14T11:35:08.026Z,100731.29
2022-10-14T11:37:43.400Z,100727.59
2022-10-14T11:40:29.002Z,100731.41
2022-10-14T11:43:21.060Z,100732.16
2022-10-14T11:45:56.942Z,100726.27
2022-10-14T11:49:09.640Z,100706.55
2022-10-14T11:51:42.970Z,100714.33
2022-10-14T11:54:35.812Z,100711.76
2022-10-14T11:57:10.017Z,100709.24
2022-10-14T12:00:04.773Z,100709.62
2022-10-14T12:03:05.030Z,100704.22
2022-10-14T12:05:59.604Z,100702.55
2022-10-14T12:08:37.742Z,100702.30
2022-10-14T12:11:24.990Z,100697.46
2022-10-14T12:14:22.647Z,100694.52
2022-10-14T12:16:54.594Z,100696.00
2022-10-14T12:19:27.348Z,100693.34
2022-10-14T12:22:13.293Z,100693.92
2022-10-14T12:24:57.223Z,100692.32
2022-10-14T12:27:28.703Z,100689.94
2022-10-14T12:33:23.035Z,100684.40
2022-10-14T12:36:00.174Z,100674.31
2022-10-14T12:38:31.306Z,100685.09
2022-10-14T12:41:38.486Z,100669.27
2022-10-14T12:44:14.864Z,100683.92
2022-10-14T12:46:49.726Z,100678.24
2022-10-14T12:49:30.868Z,100681.55
2022-10-14T12:52:05.047Z,100682.06
2022-10-14T12:54:35.898Z,100686.58
2022-10-14T12:57:15.439Z,100685.39
2022-10-14T12:59:50.560Z,100685.45
2022-10-14T13:02:32.556Z,100682.07
2022-10-14T13:05:35.158Z,100679.36
2022-10-14T13:08:19.464Z,100663.61
2022-10-14T13:10:50.059Z,100679.57
2022-10-14T13:13:58.073Z,100671.39
2022-10-14T13:16:26.228Z,100669.59
2022-10-14T13:19:01.912Z,100671.55
2022-10-14T13:21:38.827Z,100671.73
2022-10-14T13:24:06.878Z,100673.43
2022-10-14T13:26:44.408Z,100670.57
2022-10-14T13:29:47.696Z,100671.61
2022-10-14T13:32:39.318Z,100667.67
2022-10-14T13:35:38.203Z,100642.83
2022-10-14T13:38:13.139Z,100663.65
2022-10-14T13:40:48.341Z,100664.91
2022-10-14T13:43:41.619Z,100664.32
2022-10-14T13:46:12.781Z,100665.67
2022-10-14T13:48:45.349Z,100666.14
2022-10-14T13:51:24.453Z,100663.62
2022-10-14T13:54:17.098Z,100658.49
2022-10-14T13:57:19.820Z,100658.28
2022-10-14T14:00:22.612Z,100655.73
2022-10-14T14:02:42.861Z,100656.23
2022-10-14T14:05:16.707Z,100654.70
2022-10-14T14:10:39.094Z,100652.11
2022-10-14T14:13:16.117Z,100650.40
2022-10-14T14:15:50.740Z,100649.50
2022-10-14T14:19:03.794Z,100651.53
2022-10-14T14:21:36.434Z,100652.40
2022-10-14T14:24:19.223Z,100649.35
2022-10-14T14:26:55.901Z,100650.88
2022-10-14T14:29:33.498Z,100654.10
2022-10-14T14:32:07.043Z,100650.41
2022-10-14T14:34:37.891Z,100634.23
2022-10-14T14:40:06.151Z,100645.15
2022-10-14T14:42:39.662Z,100642.17
2022-10-14T14:45:19.758Z,100642.55
2022-10-14T14:47:51.618Z,100643.58
2022-10-14T14:50:31.619Z,100640.64
2022-10-14T14:53:12.092Z,100639.36
2022-10-14T14:55:42.329Z,100640.80
2022-10-14T14:58:54.232Z,100642.66
2022-10-14T15:01:23.306Z,100622.33
2022-10-14T15:04:12.230Z,100635.89
2022-10-14T15:06:59.517Z,100641.77
2022-10-14T15:09:36.655Z,100636.45
2022-10-14T15:12:12.975Z,100629.41
2022-10-14T15:14:58.260Z,100633.80
2022-10-14T15:17:35.106Z,100634.49
2022-10-14T15:20:06.147Z,100633.21
2022-10-14T15:22:37.522Z,100634.10
2022-10-14T15:25:07.411Z,100630.91
2022-10-14T15:27:36.105Z,100628.06
2022-10-14T15:30:23.740Z,100624.35
2022-10-14T15:32:52.970Z,100629.35
2022-10-14T15:35:22.714Z,100628.79
2022-10-14T15:37:51.738Z,100628.40
2022-10-14T15:40:38.170Z,100628.12
2022-10-14T15:43:13.919Z,100629.36
2022-10-14T15:46:09.128Z,100628.60
2022-10-14T15:48:46.356Z,100628.15
2022-10-14T15:51:16.764Z,100630.52
2022-10-14T15:53:44.944Z,100632.91
2022-10-14T15:56:13.152Z,100635.25
2022-10-14T15:58:41.176Z,100636.40
2022-10-14T16:01:19.501Z,100636.92
2022-10-14T16:03:55.213Z,100643.01
2022-10-14T16:06:24.833Z,100639.77
2022-10-14T16:08:53.198Z,100636.12
2022-10-14T16:11:31.342Z,100638.77
2022-10-14T16:13:59.491Z,100627.47
2022-10-14T16:16:34.413Z,100638.88
2022-10-14T16:19:02.549Z,100641.05
2022-10-14T16:21:31.237Z,100639.85
2022-10-14T16:23:59.778Z,100638.18
2022-10-14T16:26:27.986Z,100635.78
2022-10-14T16:28:56.008Z,100639.11
2022-10-14T16:31:24.168Z,100640.79
2022-10-14T16:33:55.126Z,100635.02
2022-10-14T16:36:25.029Z,100639.19
2022-10-14T16:38:54.984Z,100640.03
2022-10-14T16:41:22.959Z,100641.58
2022-10-14T16:43:50.752Z,100640.73
2022-10-14T16:46:18.702Z,100635.70
2022-10-14T16:48:49.785Z,100635.57
2022-10-14T16:51:17.731Z,100637.15
2022-10-14T16:53:47.080Z,100639.98
2022-10-14T16:56:40.927Z,100641.69
2022-10-14T16:59:12.809Z,100640.55
2022-10-14T17:01:41.130Z,100646.23
2022-10-14T17:04:14.054Z,100641.72
2022-10-14T17:06:44.280Z,100643.42
2022-10-14T17:09:17.627Z,100644.18
2022-10-14T17:11:46.511Z,100648.94
2022-10-14T17:14:16.995Z,100647.40
2022-10-14T17:16:47.340Z,100637.51
2022-10-14T17:19:16.230Z,100645.86
2022-10-14T17:21:44.580Z,100647.25
2022-10-14T17:24:17.143Z,100627.89
2022-10-14T17:26:46.897Z,100639.71
2022-10-14T17:29:15.191Z,100641.12
2022-10-14T17:31:46.956Z,100639.44
2022-10-14T17:34:15.666Z,100640.10
2022-10-14T17:36:44.022Z,100638.97
2022-10-14T17:39:16.471Z,100635.98
2022-10-14T17:41:49.458Z,100638.16
2022-10-14T17:44:17.426Z,100621.66
2022-10-14T17:46:45.816Z,100637.97
2022-10-14T17:49:14.446Z,100638.90
2022-10-14T17:51:42.802Z,100637.03
2022-10-14T17:54:12.263Z,100633.10
2022-10-14T17:56:41.090Z,100628.96
2022-10-14T17:59:14.262Z,100563.02
2022-10-14T18:02:01.561Z,100626.51
2022-10-14T18:04:32.683Z,100627.75
2022-10-14T18:07:03.500Z,100623.48
2022-10-14T18:09:31.331Z,100623.69
2022-10-14T18:12:08.646Z,100623.52
2022-10-14T18:14:40.683Z,100626.41
2022-10-14T18:17:11.104Z,100623.60
2022-10-14T18:19:40.960Z,100623.73
2022-10-14T18:22:11.115Z,100617.98
2022-10-14T18:24:39.543Z,100621.27
2022-10-14T18:27:07.774Z,100622.27
2022-10-14T18:29:37.091Z,100624.41
2022-10-14T18:32:05.803Z,100622.25
2022-10-14T18:34:34.183Z,100619.91
2022-10-14T18:37:02.300Z,100625.38
2022-10-14T18:39:30.646Z,100624.89
2022-10-14T18:41:58.560Z,100622.71
2022-10-14T18:44:26.782Z,100621.25
2022-10-14T18:46:55.064Z,100622.95
2022-10-14T18:49:22.845Z,100619.31
2022-10-14T18:51:50.844Z,100602.83
2022-10-14T18:54:21.574Z,100616.75
2022-10-14T18:56:49.434Z,100618.58
2022-10-14T18:59:20.443Z,100617.45
2022-10-14T19:01:52.147Z,100618.03
2022-10-14T19:04:23.034Z,100617.33
2022-10-14T19:06:51.155Z,100611.33
2022-10-14T19:09:22.393Z,100616.64
2022-10-14T19:11:51.843Z,100614.59
2022-10-14T19:14:20.881Z,100608.77
2022-10-14T19:16:49.793Z,100605.55
2022-10-14T19:19:20.203Z,100608.69
2022-10-14T19:21:50.993Z,100606.57
2022-10-14T19:24:22.564Z,100608.97
2022-10-14T19:26:50.832Z,100610.75
2022-10-14T19:29:18.560Z,100606.73
2022-10-14T19:31:46.608Z,100606.41
2022-10-14T19:34:16.013Z,100608.46
2022-10-14T19:36:44.633Z,100604.11
2022-10-14T19:39:16.060Z,100605.58
2022-10-14T19:41:46.351Z,100612.17
2022-10-14T19:44:16.264Z,100612.43
2022-10-14T19:46:45.626Z,100613.05
2022-10-14T19:49:14.966Z,100614.38
2022-10-14T19:51:44.093Z,100612.59
2022-10-14T19:54:12.784Z,100614.23
2022-10-14T19:56:41.084Z,100614.52
2022-10-14T19:59:10.124Z,100611.00
2022-10-14T20:01:38.281Z,100605.60
2022-10-14T20:04:07.109Z,100603.06
2022-10-14T20:06:38.104Z,100601.24
2022-10-14T20:09:07.324Z,100607.60
2022-10-14T20:11:36.196Z,100607.77
2022-10-14T20:14:04.247Z,100604.61
2022-10-14T20:16:32.586Z,100603.50
2022-10-14T20:19:01.031Z,100605.70
2022-10-14T20:21:30.808Z,100605.27
2022-10-14T20:23:59.613Z,100602.97
2022-10-14T20:26:28.044Z,100581.27
2022-10-14T20:28:56.465Z,100600.17
2022-10-14T20:31:25.609Z,100602.81
2022-10-14T20:33:56.069Z,100602.97
2022-10-14T20:36:24.882Z,100602.53
2022-10-14T20:38:52.954Z,100597.46
2022-10-14T20:41:27.444Z,100595.99
2022-10-14T20:43:58.703Z,100592.98
2022-10-14T20:46:26.899Z,100589.40
2022-10-14T20:48:56.698Z,100590.17
2022-10-14T20:51:25.086Z,100592.90
2022-10-14T20:54:01.909Z,100591.63
2022-10-14T20:56:33.600Z,100591.20
2022-10-14T20:59:05.042Z,100587.88
2022-10-14T21:01:35.223Z,100589.39
2022-10-14T21:04:05.914Z,100575.11
2022-10-14T21:06:34.904Z,100590.48
2022-10-14T21:09:03.160Z,100590.52
2022-10-14T21:11:32.066Z,100589.84
2022-10-14T21:14:01.076Z,100589.24
2022-10-14T21:16:29.670Z,100588.02
2022-10-14T21:19:00.934Z,100568.89
2022-10-14T21:21:33.016Z,100590.30
2022-10-14T21:24:01.005Z,100591.13
2022-10-14T21:26:30.406Z,100586.22
2022-10-14T21:29:02.390Z,100581.42
2022-10-14T21:31:31.702Z,100581.52
2022-10-14T21:34:05.697Z,100579.94
2022-10-14T21:36:35.748Z,100576.66
2022-10-14T21:39:13.006Z,100572.86
2022-10-14T21:41:42.121Z,100571.98
2022-10-14T21:44:15.697Z,100572.31
2022-10-14T21:46:43.976Z,100569.63
2022-10-14T21:49:13.157Z,100565.11
2022-10-14T21:51:41.289Z,100564.34
2022-10-14T21:54:12.508Z,100563.13
2022-10-14T21:56:40.855Z,100554.83
2022-10-14T21:59:10.165Z,100562.65
2022-10-14T22:01:38.511Z,100561.61
2022-10-14T22:04:06.882Z,100560.46
2022-10-14T22:06:36.346Z,100559.98
2022-10-14T22:09:07.692Z,100560.20
2022-10-14T22:11:41.413Z,100559.18
2022-10-14T22:14:17.460Z,100557.60
2022-10-14T22:16:46.982Z,100557.13
2022-10-14T22:19:15.583Z,100562.08
2022-10-14T22:21:46.362Z,100556.23
2022-10-14T22:24:14.658Z,100557.15
2022-10-14T22:26:42.936Z,100537.84
2022-10-14T22:29:14.583Z,100553.82
2022-10-14T22:31:42.451Z,100554.83
2022-10-14T22:34:12.567Z,100549.77
2022-10-14T22:36:41.306Z,100544.19
2022-10-14T22:39:14.867Z,100547.16
2022-10-14T22:41:43.333Z,100545.27
2022-10-14T22:44:11.888Z,100552.15
2022-10-14T22:46:40.939Z,100552.35
2022-10-14T22:49:09.133Z,100550.52
2022-10-14T22:51:43.367Z,100550.52
2022-10-14T22:54:11.567Z,100552.77
2022-10-14T22:56:39.891Z,100554.05
2022-10-14T22:59:10.311Z,100559.29
2022-10-14T23:01:40.107Z,100555.13
2022-10-14T23:04:08.808Z,100554.89
2022-10-14T23:06:37.287Z,100558.21
2022-10-14T23:09:05.650Z,100554.02
2022-10-14T23:11:33.451Z,100552.41
2022-10-14T23:14:04.586Z,100549.33
2022-10-14T23:16:36.175Z,100551.17
2022-10-14T23:19:04.483Z,100547.48
2022-10-14T23:21:34.915Z,100548.14
2022-10-14T23:24:09.060Z,100545.20
2022-10-14T23:26:37.803Z,100539.52
2022-10-14T23:29:10.008Z,100542.05
2022-10-14T23:31:39.481Z,100538.17
2022-10-14T23:34:11.724Z,100540.13
2022-10-14T23:36:39.636Z,100539.59
2022-10-14T23:39:07.913Z,100541.35
2022-10-14T23:41:35.915Z,100526.29
2022-10-14T23:44:03.915Z,100546.52
2022-10-14T23:46:32.088Z,100544.06
2022-10-14T23:49:24.934Z,100545.29
2022-10-14T23:51:51.212Z,100548.78
2022-10-14T23:54:19.590Z,100549.58
2022-10-14T23:56:47.649Z,100548.94
2022-10-14T23:59:15.442Z,100551.98
